sensor_id;sensor_type;location;lat;lon;timestamp;P1;durP1;ratioP1;P2;durP2;ratioP2
20038;SDS011;21737;42.868;25.320;2023-04-25T00:00:46;21.20;;;14.53;;
20038;SDS011;21737;42.868;25.320;2023-04-25T00:03:47;19.27;;;14.17;;
20038;SDS011;21737;42.868;25.320;2023-04-25T00:06:50;20.50;;;14.27;;
20038;SDS011;21737;42.868;25.320;2023-04-25T00:09:53;21.93;;;14.93;;
20038;SDS011;21737;42.868;25.320;2023-04-25T00:12:55;17.73;;;14.13;;
20038;SDS011;21737;42.868;25.320;2023-04-25T00:15:56;21.20;;;14.80;;
20038;SDS011;21737;42.868;25.320;2023-04-25T00:18:59;17.73;;;14.57;;
20038;SDS011;21737;42.868;25.320;2023-04-25T00:22:02;19.57;;;14.07;;
20038;SDS011;21737;42.868;25.320;2023-04-25T00:25:05;17.40;;;13.67;;
20038;SDS011;21737;42.868;25.320;2023-04-25T00:28:06;22.03;;;14.33;;
20038;SDS011;21737;42.868;25.320;2023-04-25T00:31:08;18.90;;;13.53;;
20038;SDS011;21737;42.868;25.320;2023-04-25T00:34:10;32.70;;;24.07;;
20038;SDS011;21737;42.868;25.320;2023-04-25T00:37:11;29.50;;;19.00;;
20038;SDS011;21737;42.868;25.320;2023-04-25T00:40:14;20.80;;;15.17;;
20038;SDS011;21737;42.868;25.320;2023-04-25T00:43:15;20.40;;;15.90;;
20038;SDS011;21737;42.868;25.320;2023-04-25T00:46:17;19.70;;;14.87;;
20038;SDS011;21737;42.868;25.320;2023-04-25T00:49:19;15.93;;;11.60;;
20038;SDS011;21737;42.868;25.320;2023-04-25T00:52:21;20.17;;;16.47;;
20038;SDS011;21737;42.868;25.320;2023-04-25T00:55:23;21.30;;;16.93;;
20038;SDS011;21737;42.868;25.320;2023-04-25T00:58:24;22.83;;;17.93;;
20038;SDS011;21737;42.868;25.320;2023-04-25T01:01:26;24.17;;;17.33;;
20038;SDS011;21737;42.868;25.320;2023-04-25T01:04:29;22.23;;;18.20;;
20038;SDS011;21737;42.868;25.320;2023-04-25T01:07:31;25.63;;;17.83;;
20038;SDS011;21737;42.868;25.320;2023-04-25T01:10:33;24.83;;;18.67;;
20038;SDS011;21737;42.868;25.320;2023-04-25T01:13:35;27.80;;;21.03;;
20038;SDS011;21737;42.868;25.320;2023-04-25T01:16:38;34.30;;;26.60;;
20038;SDS011;21737;42.868;25.320;2023-04-25T01:19:40;23.23;;;17.83;;
20038;SDS011;21737;42.868;25.320;2023-04-25T01:22:42;25.03;;;19.40;;
20038;SDS011;21737;42.868;25.320;2023-04-25T01:25:44;32.53;;;24.27;;
20038;SDS011;21737;42.868;25.320;2023-04-25T01:28:46;23.67;;;18.63;;
20038;SDS011;21737;42.868;25.320;2023-04-25T01:31:48;26.57;;;18.60;;
20038;SDS011;21737;42.868;25.320;2023-04-25T01:34:50;25.20;;;18.20;;
20038;SDS011;21737;42.868;25.320;2023-04-25T01:37:53;14.60;;;10.87;;
20038;SDS011;21737;42.868;25.320;2023-04-25T01:40:55;15.03;;;11.13;;
20038;SDS011;21737;42.868;25.320;2023-04-25T01:43:57;17.07;;;13.20;;
20038;SDS011;21737;42.868;25.320;2023-04-25T01:46:59;18.40;;;14.27;;
20038;SDS011;21737;42.868;25.320;2023-04-25T01:50:05;13.30;;;8.77;;
20038;SDS011;21737;42.868;25.320;2023-04-25T01:53:07;10.97;;;8.30;;
20038;SDS011;21737;42.868;25.320;2023-04-25T01:56:10;9.23;;;8.03;;
20038;SDS011;21737;42.868;25.320;2023-04-25T01:59:13;11.80;;;8.67;;
20038;SDS011;21737;42.868;25.320;2023-04-25T02:02:33;10.63;;;7.43;;
20038;SDS011;21737;42.868;25.320;2023-04-25T02:05:38;9.27;;;7.10;;
20038;SDS011;21737;42.868;25.320;2023-04-25T02:08:43;9.77;;;8.53;;
20038;SDS011;21737;42.868;25.320;2023-04-25T02:11:46;8.60;;;7.50;;
20038;SDS011;21737;42.868;25.320;2023-04-25T02:15:06;9.33;;;7.73;;
20038;SDS011;21737;42.868;25.320;2023-04-25T02:18:28;12.60;;;9.00;;
20038;SDS011;21737;42.868;25.320;2023-04-25T02:21:30;13.50;;;8.57;;
20038;SDS011;21737;42.868;25.320;2023-04-25T02:24:32;11.80;;;9.30;;
20038;SDS011;21737;42.868;25.320;2023-04-25T02:27:35;11.13;;;9.10;;
20038;SDS011;21737;42.868;25.320;2023-04-25T02:30:37;13.03;;;8.83;;
20038;SDS011;21737;42.868;25.320;2023-04-25T02:33:39;11.30;;;8.97;;
20038;SDS011;21737;42.868;25.320;2023-04-25T02:36:41;13.40;;;8.50;;
20038;SDS011;21737;42.868;25.320;2023-04-25T02:39:42;10.97;;;8.33;;
20038;SDS011;21737;42.868;25.320;2023-04-25T02:42:44;13.20;;;8.03;;
20038;SDS011;21737;42.868;25.320;2023-04-25T02:45:47;10.70;;;7.27;;
20038;SDS011;21737;42.868;25.320;2023-04-25T02:48:48;11.20;;;7.90;;
20038;SDS011;21737;42.868;25.320;2023-04-25T02:51:50;8.50;;;7.10;;
20038;SDS011;21737;42.868;25.320;2023-04-25T02:54:52;9.13;;;6.73;;
20038;SDS011;21737;42.868;25.320;2023-04-25T02:57:54;7.83;;;6.53;;
20038;SDS011;21737;42.868;25.320;2023-04-25T03:01:09;11.73;;;6.67;;
20038;SDS011;21737;42.868;25.320;2023-04-25T03:04:11;8.00;;;6.37;;
20038;SDS011;21737;42.868;25.320;2023-04-25T03:07:13;7.63;;;5.40;;
20038;SDS011;21737;42.868;25.320;2023-04-25T03:10:15;5.07;;;4.57;;
20038;SDS011;21737;42.868;25.320;2023-04-25T03:13:16;6.80;;;4.43;;
20038;SDS011;21737;42.868;25.320;2023-04-25T03:16:18;5.33;;;4.70;;
20038;SDS011;21737;42.868;25.320;2023-04-25T03:19:20;4.80;;;4.20;;
20038;SDS011;21737;42.868;25.320;2023-04-25T03:22:21;10.57;;;6.90;;
20038;SDS011;21737;42.868;25.320;2023-04-25T03:25:24;7.73;;;6.30;;
20038;SDS011;21737;42.868;25.320;2023-04-25T03:28:26;4.77;;;3.83;;
20038;SDS011;21737;42.868;25.320;2023-04-25T03:31:30;4.50;;;4.10;;
20038;SDS011;21737;42.868;25.320;2023-04-25T03:34:33;5.30;;;4.77;;
20038;SDS011;21737;42.868;25.320;2023-04-25T03:37:34;6.33;;;4.30;;
20038;SDS011;21737;42.868;25.320;2023-04-25T03:40:36;8.70;;;6.30;;
20038;SDS011;21737;42.868;25.320;2023-04-25T03:43:48;7.67;;;5.37;;
20038;SDS011;21737;42.868;25.320;2023-04-25T03:46:51;8.97;;;4.57;;
20038;SDS011;21737;42.868;25.320;2023-04-25T03:49:53;4.93;;;3.60;;
20038;SDS011;21737;42.868;25.320;2023-04-25T03:52:57;5.67;;;3.87;;
20038;SDS011;21737;42.868;25.320;2023-04-25T03:56:02;6.30;;;4.10;;
20038;SDS011;21737;42.868;25.320;2023-04-25T03:59:06;6.37;;;4.60;;
20038;SDS011;21737;42.868;25.320;2023-04-25T04:02:09;24.90;;;11.77;;
20038;SDS011;21737;42.868;25.320;2023-04-25T04:05:11;11.57;;;6.87;;
20038;SDS011;21737;42.868;25.320;2023-04-25T04:08:21;7.93;;;5.77;;
20038;SDS011;21737;42.868;25.320;2023-04-25T04:11:23;6.10;;;4.43;;
20038;SDS011;21737;42.868;25.320;2023-04-25T04:14:24;5.40;;;3.87;;
20038;SDS011;21737;42.868;25.320;2023-04-25T04:17:26;6.53;;;4.67;;
20038;SDS011;21737;42.868;25.320;2023-04-25T04:20:29;5.60;;;4.00;;
20038;SDS011;21737;42.868;25.320;2023-04-25T04:23:32;4.90;;;3.20;;
20038;SDS011;21737;42.868;25.320;2023-04-25T04:26:35;4.43;;;3.57;;
20038;SDS011;21737;42.868;25.320;2023-04-25T04:30:02;9.67;;;4.30;;
20038;SDS011;21737;42.868;25.320;2023-04-25T04:33:08;6.30;;;3.97;;
20038;SDS011;21737;42.868;25.320;2023-04-25T04:36:12;6.53;;;4.00;;
20038;SDS011;21737;42.868;25.320;2023-04-25T04:39:15;7.90;;;5.50;;
20038;SDS011;21737;42.868;25.320;2023-04-25T04:42:37;8.77;;;6.03;;
20038;SDS011;21737;42.868;25.320;2023-04-25T04:46:02;8.40;;;6.47;;
20038;SDS011;21737;42.868;25.320;2023-04-25T04:49:24;7.00;;;5.63;;
20038;SDS011;21737;42.868;25.320;2023-04-25T04:52:44;9.20;;;6.53;;
20038;SDS011;21737;42.868;25.320;2023-04-25T04:56:06;6.70;;;5.47;;
20038;SDS011;21737;42.868;25.320;2023-04-25T04:59:43;9.47;;;5.23;;
20038;SDS011;21737;42.868;25.320;2023-04-25T05:03:05;9.70;;;6.00;;
20038;SDS011;21737;42.868;25.320;2023-04-25T05:06:37;11.20;;;6.77;;
20038;SDS011;21737;42.868;25.320;2023-04-25T05:09:57;9.70;;;7.33;;
20038;SDS011;21737;42.868;25.320;2023-04-25T05:13:18;7.73;;;4.57;;
20038;SDS011;21737;42.868;25.320;2023-04-25T05:16:48;12.07;;;5.90;;
20038;SDS011;21737;42.868;25.320;2023-04-25T05:19:57;11.60;;;7.70;;
20038;SDS011;21737;42.868;25.320;2023-04-25T05:23:34;8.77;;;5.10;;
20038;SDS011;21737;42.868;25.320;2023-04-25T05:26:47;6.97;;;4.97;;
20038;SDS011;21737;42.868;25.320;2023-04-25T05:30:07;6.00;;;4.43;;
20038;SDS011;21737;42.868;25.320;2023-04-25T05:33:29;6.90;;;4.20;;
20038;SDS011;21737;42.868;25.320;2023-04-25T05:36:31;8.37;;;3.70;;
20038;SDS011;21737;42.868;25.320;2023-04-25T05:39:34;5.60;;;4.20;;
20038;SDS011;21737;42.868;25.320;2023-04-25T05:42:55;9.37;;;4.17;;
20038;SDS011;21737;42.868;25.320;2023-04-25T05:46:16;5.17;;;3.80;;
20038;SDS011;21737;42.868;25.320;2023-04-25T05:49:59;6.47;;;2.87;;
20038;SDS011;21737;42.868;25.320;2023-04-25T05:53:15;6.87;;;4.10;;
20038;SDS011;21737;42.868;25.320;2023-04-25T05:56:17;12.37;;;5.33;;
20038;SDS011;21737;42.868;25.320;2023-04-25T05:59:21;6.33;;;2.93;;
20038;SDS011;21737;42.868;25.320;2023-04-25T06:02:23;4.27;;;3.43;;
20038;SDS011;21737;42.868;25.320;2023-04-25T06:05:26;9.67;;;3.30;;
20038;SDS011;21737;42.868;25.320;2023-04-25T06:08:28;7.47;;;4.03;;
20038;SDS011;21737;42.868;25.320;2023-04-25T06:11:30;12.90;;;3.70;;
20038;SDS011;21737;42.868;25.320;2023-04-25T06:14:32;5.90;;;3.20;;
20038;SDS011;21737;42.868;25.320;2023-04-25T06:17:34;6.00;;;3.90;;
20038;SDS011;21737;42.868;25.320;2023-04-25T06:20:37;6.07;;;3.37;;
20038;SDS011;21737;42.868;25.320;2023-04-25T06:23:39;9.57;;;4.07;;
20038;SDS011;21737;42.868;25.320;2023-04-25T06:26:42;15.40;;;4.63;;
20038;SDS011;21737;42.868;25.320;2023-04-25T06:29:44;25.23;;;5.20;;
20038;SDS011;21737;42.868;25.320;2023-04-25T06:32:46;17.53;;;5.93;;
20038;SDS011;21737;42.868;25.320;2023-04-25T06:35:48;20.00;;;6.40;;
20038;SDS011;21737;42.868;25.320;2023-04-25T06:38:53;32.80;;;8.07;;
20038;SDS011;21737;42.868;25.320;2023-04-25T06:41:55;20.23;;;6.40;;
20038;SDS011;21737;42.868;25.320;2023-04-25T06:45:23;63.23;;;10.60;;
20038;SDS011;21737;42.868;25.320;2023-04-25T06:48:27;22.87;;;7.00;;
20038;SDS011;21737;42.868;25.320;2023-04-25T06:51:29;28.03;;;6.20;;
20038;SDS011;21737;42.868;25.320;2023-04-25T06:54:32;7.33;;;5.17;;
20038;SDS011;21737;42.868;25.320;2023-04-25T06:57:39;7.27;;;2.67;;
20038;SDS011;21737;42.868;25.320;2023-04-25T07:01:01;11.00;;;3.90;;
20038;SDS011;21737;42.868;25.320;2023-04-25T07:04:03;4.57;;;2.50;;
20038;SDS011;21737;42.868;25.320;2023-04-25T07:07:07;9.93;;;3.70;;
20038;SDS011;21737;42.868;25.320;2023-04-25T07:10:23;16.67;;;4.97;;
20038;SDS011;21737;42.868;25.320;2023-04-25T07:13:26;13.43;;;6.27;;
20038;SDS011;21737;42.868;25.320;2023-04-25T07:16:28;14.87;;;5.43;;
20038;SDS011;21737;42.868;25.320;2023-04-25T07:19:30;27.30;;;4.10;;
20038;SDS011;21737;42.868;25.320;2023-04-25T07:22:35;8.40;;;4.87;;
20038;SDS011;21737;42.868;25.320;2023-04-25T07:25:37;31.73;;;8.37;;
20038;SDS011;21737;42.868;25.320;2023-04-25T07:28:40;9.70;;;3.30;;
20038;SDS011;21737;42.868;25.320;2023-04-25T07:31:42;14.20;;;5.30;;
20038;SDS011;21737;42.868;25.320;2023-04-25T07:34:43;11.57;;;8.77;;
20038;SDS011;21737;42.868;25.320;2023-04-25T07:37:45;22.30;;;7.07;;
20038;SDS011;21737;42.868;25.320;2023-04-25T07:40:50;7.07;;;4.40;;
20038;SDS011;21737;42.868;25.320;2023-04-25T07:43:52;13.33;;;5.47;;
20038;SDS011;21737;42.868;25.320;2023-04-25T07:46:54;8.20;;;3.20;;
20038;SDS011;21737;42.868;25.320;2023-04-25T07:49:56;19.77;;;4.10;;
20038;SDS011;21737;42.868;25.320;2023-04-25T07:52:59;11.07;;;2.70;;
20038;SDS011;21737;42.868;25.320;2023-04-25T07:56:06;5.53;;;2.20;;
20038;SDS011;21737;42.868;25.320;2023-04-25T07:59:11;5.57;;;3.77;;
20038;SDS011;21737;42.868;25.320;2023-04-25T08:02:15;10.00;;;4.07;;
20038;SDS011;21737;42.868;25.320;2023-04-25T08:05:17;6.23;;;2.40;;
20038;SDS011;21737;42.868;25.320;2023-04-25T08:08:28;4.50;;;3.57;;
20038;SDS011;21737;42.868;25.320;2023-04-25T08:11:31;17.83;;;9.60;;
20038;SDS011;21737;42.868;25.320;2023-04-25T08:14:32;4.13;;;2.57;;
20038;SDS011;21737;42.868;25.320;2023-04-25T08:17:38;8.23;;;2.30;;
20038;SDS011;21737;42.868;25.320;2023-04-25T08:20:41;7.30;;;2.77;;
20038;SDS011;21737;42.868;25.320;2023-04-25T08:23:45;2.60;;;1.90;;
20038;SDS011;21737;42.868;25.320;2023-04-25T08:26:55;3.03;;;2.07;;
20038;SDS011;21737;42.868;25.320;2023-04-25T08:29:59;1.73;;;1.63;;
20038;SDS011;21737;42.868;25.320;2023-04-25T08:33:01;1.73;;;1.50;;
20038;SDS011;21737;42.868;25.320;2023-04-25T08:36:23;1.83;;;1.70;;
20038;SDS011;21737;42.868;25.320;2023-04-25T08:39:52;3.20;;;1.88;;
20038;SDS011;21737;42.868;25.320;2023-04-25T08:43:18;2.53;;;1.60;;
20038;SDS011;21737;42.868;25.320;2023-04-25T08:46:20;3.70;;;1.70;;
20038;SDS011;21737;42.868;25.320;2023-04-25T08:49:39;3.20;;;1.80;;
20038;SDS011;21737;42.868;25.320;2023-04-25T08:52:44;2.20;;;1.90;;
20038;SDS011;21737;42.868;25.320;2023-04-25T08:55:49;9.23;;;1.70;;
20038;SDS011;21737;42.868;25.320;2023-04-25T08:58:51;2.60;;;1.30;;
20038;SDS011;21737;42.868;25.320;2023-04-25T09:01:53;1.50;;;1.40;;
20038;SDS011;21737;42.868;25.320;2023-04-25T09:04:56;3.20;;;1.90;;
20038;SDS011;21737;42.868;25.320;2023-04-25T09:07:58;2.73;;;1.70;;
20038;SDS011;21737;42.868;25.320;2023-04-25T09:10:59;3.93;;;2.07;;
20038;SDS011;21737;42.868;25.320;2023-04-25T09:17:35;3.40;;;2.20;;
20038;SDS011;21737;42.868;25.320;2023-04-25T09:20:42;4.77;;;2.20;;
20038;SDS011;21737;42.868;25.320;2023-04-25T09:23:47;3.50;;;1.80;;
20038;SDS011;21737;42.868;25.320;2023-04-25T09:26:51;2.17;;;1.80;;
20038;SDS011;21737;42.868;25.320;2023-04-25T09:29:59;2.83;;;1.40;;
20038;SDS011;21737;42.868;25.320;2023-04-25T09:33:29;3.40;;;1.90;;
20038;SDS011;21737;42.868;25.320;2023-04-25T09:36:33;2.80;;;1.80;;
20038;SDS011;21737;42.868;25.320;2023-04-25T09:39:52;4.57;;;2.43;;
20038;SDS011;21737;42.868;25.320;2023-04-25T09:42:54;4.70;;;2.90;;
20038;SDS011;21737;42.868;25.320;2023-04-25T09:45:58;5.60;;;2.80;;
20038;SDS011;21737;42.868;25.320;2023-04-25T09:49:07;19.50;;;10.40;;
20038;SDS011;21737;42.868;25.320;2023-04-25T09:52:27;40.70;;;23.17;;
20038;SDS011;21737;42.868;25.320;2023-04-25T09:55:52;2.93;;;2.43;;
20038;SDS011;21737;42.868;25.320;2023-04-25T09:58:53;4.47;;;2.57;;
20038;SDS011;21737;42.868;25.320;2023-04-25T10:01:56;4.23;;;2.73;;
20038;SDS011;21737;42.868;25.320;2023-04-25T10:05:06;4.47;;;2.63;;
20038;SDS011;21737;42.868;25.320;2023-04-25T10:08:12;3.17;;;2.50;;
20038;SDS011;21737;42.868;25.320;2023-04-25T10:11:14;5.47;;;3.20;;
20038;SDS011;21737;42.868;25.320;2023-04-25T10:14:18;4.10;;;2.73;;
20038;SDS011;21737;42.868;25.320;2023-04-25T10:17:20;2.90;;;2.57;;
20038;SDS011;21737;42.868;25.320;2023-04-25T10:20:22;4.87;;;3.10;;
20038;SDS011;21737;42.868;25.320;2023-04-25T10:23:25;4.27;;;2.40;;
20038;SDS011;21737;42.868;25.320;2023-04-25T10:26:27;5.03;;;2.73;;
20038;SDS011;21737;42.868;25.320;2023-04-25T10:29:31;4.03;;;2.50;;
20038;SDS011;21737;42.868;25.320;2023-04-25T10:32:33;3.20;;;2.40;;
20038;SDS011;21737;42.868;25.320;2023-04-25T10:35:35;3.83;;;2.60;;
20038;SDS011;21737;42.868;25.320;2023-04-25T10:38:36;3.13;;;2.37;;
20038;SDS011;21737;42.868;25.320;2023-04-25T10:41:48;2.60;;;2.13;;
20038;SDS011;21737;42.868;25.320;2023-04-25T10:45:00;10.07;;;2.70;;
20038;SDS011;21737;42.868;25.320;2023-04-25T10:48:02;4.23;;;2.57;;
20038;SDS011;21737;42.868;25.320;2023-04-25T10:51:11;6.03;;;3.50;;
20038;SDS011;21737;42.868;25.320;2023-04-25T10:54:13;4.10;;;2.37;;
20038;SDS011;21737;42.868;25.320;2023-04-25T11:00:39;3.80;;;2.33;;
20038;SDS011;21737;42.868;25.320;2023-04-25T11:03:57;5.77;;;2.80;;
20038;SDS011;21737;42.868;25.320;2023-04-25T11:10:08;3.63;;;2.30;;
20038;SDS011;21737;42.868;25.320;2023-04-25T11:13:10;3.50;;;1.97;;
20038;SDS011;21737;42.868;25.320;2023-04-25T11:16:12;3.40;;;2.00;;
20038;SDS011;21737;42.868;25.320;2023-04-25T11:19:27;6.93;;;2.10;;
20038;SDS011;21737;42.868;25.320;2023-04-25T11:22:30;3.60;;;1.90;;
20038;SDS011;21737;42.868;25.320;2023-04-25T11:25:32;6.43;;;1.97;;
20038;SDS011;21737;42.868;25.320;2023-04-25T11:28:37;2.07;;;1.87;;
20038;SDS011;21737;42.868;25.320;2023-04-25T11:31:38;1.70;;;1.60;;
20038;SDS011;21737;42.868;25.320;2023-04-25T11:34:42;2.30;;;1.73;;
20038;SDS011;21737;42.868;25.320;2023-04-25T11:37:44;10.50;;;3.00;;
20038;SDS011;21737;42.868;25.320;2023-04-25T11:40:49;4.90;;;2.37;;
20038;SDS011;21737;42.868;25.320;2023-04-25T11:43:51;7.73;;;2.80;;
20038;SDS011;21737;42.868;25.320;2023-04-25T11:46:53;11.53;;;2.40;;
20038;SDS011;21737;42.868;25.320;2023-04-25T11:49:55;3.67;;;2.50;;
20038;SDS011;21737;42.868;25.320;2023-04-25T11:52:57;4.03;;;2.40;;
20038;SDS011;21737;42.868;25.320;2023-04-25T11:55:58;4.80;;;2.73;;
20038;SDS011;21737;42.868;25.320;2023-04-25T11:59:04;4.53;;;2.27;;
20038;SDS011;21737;42.868;25.320;2023-04-25T12:02:07;2.03;;;1.60;;
20038;SDS011;21737;42.868;25.320;2023-04-25T12:05:10;2.03;;;1.77;;
20038;SDS011;21737;42.868;25.320;2023-04-25T12:08:31;5.90;;;2.10;;
20038;SDS011;21737;42.868;25.320;2023-04-25T12:11:40;2.30;;;1.77;;
20038;SDS011;21737;42.868;25.320;2023-04-25T12:14:45;2.83;;;2.03;;
20038;SDS011;21737;42.868;25.320;2023-04-25T12:17:49;11.90;;;2.33;;
20038;SDS011;21737;42.868;25.320;2023-04-25T12:20:52;6.80;;;2.13;;
20038;SDS011;21737;42.868;25.320;2023-04-25T12:23:54;1.43;;;1.33;;
20038;SDS011;21737;42.868;25.320;2023-04-25T12:27:00;5.43;;;2.10;;
20038;SDS011;21737;42.868;25.320;2023-04-25T12:30:02;3.40;;;1.80;;
20038;SDS011;21737;42.868;25.320;2023-04-25T12:33:04;2.97;;;2.30;;
20038;SDS011;21737;42.868;25.320;2023-04-25T12:36:06;4.73;;;2.77;;
20038;SDS011;21737;42.868;25.320;2023-04-25T12:39:16;5.93;;;3.00;;
20038;SDS011;21737;42.868;25.320;2023-04-25T12:42:18;4.20;;;2.83;;
20038;SDS011;21737;42.868;25.320;2023-04-25T12:45:20;6.20;;;3.83;;
20038;SDS011;21737;42.868;25.320;2023-04-25T12:48:22;5.13;;;3.50;;
20038;SDS011;21737;42.868;25.320;2023-04-25T12:51:24;8.43;;;5.43;;
20038;SDS011;21737;42.868;25.320;2023-04-25T12:54:26;4.07;;;3.50;;
20038;SDS011;21737;42.868;25.320;2023-04-25T12:57:28;5.93;;;3.87;;
20038;SDS011;21737;42.868;25.320;2023-04-25T13:00:29;5.70;;;4.07;;
20038;SDS011;21737;42.868;25.320;2023-04-25T13:03:32;5.67;;;4.03;;
20038;SDS011;21737;42.868;25.320;2023-04-25T13:06:34;4.30;;;3.83;;
20038;SDS011;21737;42.868;25.320;2023-04-25T13:09:36;3.37;;;3.03;;
20038;SDS011;21737;42.868;25.320;2023-04-25T13:12:38;8.27;;;3.83;;
20038;SDS011;21737;42.868;25.320;2023-04-25T13:15:39;4.70;;;3.20;;
20038;SDS011;21737;42.868;25.320;2023-04-25T13:18:41;4.87;;;3.83;;
20038;SDS011;21737;42.868;25.320;2023-04-25T13:21:43;4.57;;;3.70;;
20038;SDS011;21737;42.868;25.320;2023-04-25T13:24:44;4.80;;;4.30;;
20038;SDS011;21737;42.868;25.320;2023-04-25T13:27:46;6.47;;;3.90;;
20038;SDS011;21737;42.868;25.320;2023-04-25T13:30:48;6.27;;;3.33;;
20038;SDS011;21737;42.868;25.320;2023-04-25T13:33:49;5.37;;;4.00;;
20038;SDS011;21737;42.868;25.320;2023-04-25T13:36:52;4.63;;;3.40;;
20038;SDS011;21737;42.868;25.320;2023-04-25T13:39:53;6.03;;;2.80;;
20038;SDS011;21737;42.868;25.320;2023-04-25T13:42:56;4.57;;;2.90;;
20038;SDS011;21737;42.868;25.320;2023-04-25T13:45:58;4.40;;;2.70;;
20038;SDS011;21737;42.868;25.320;2023-04-25T13:49:00;5.43;;;3.77;;
20038;SDS011;21737;42.868;25.320;2023-04-25T13:52:12;6.30;;;4.20;;
20038;SDS011;21737;42.868;25.320;2023-04-25T13:55:14;3.97;;;3.57;;
20038;SDS011;21737;42.868;25.320;2023-04-25T13:58:16;10.80;;;9.70;;
20038;SDS011;21737;42.868;25.320;2023-04-25T14:01:18;4.90;;;3.63;;
20038;SDS011;21737;42.868;25.320;2023-04-25T14:04:20;7.10;;;3.73;;
20038;SDS011;21737;42.868;25.320;2023-04-25T14:07:21;4.23;;;3.30;;
20038;SDS011;21737;42.868;25.320;2023-04-25T14:10:23;9.13;;;4.27;;
20038;SDS011;21737;42.868;25.320;2023-04-25T14:13:25;4.07;;;3.37;;
20038;SDS011;21737;42.868;25.320;2023-04-25T14:16:27;7.97;;;3.73;;
20038;SDS011;21737;42.868;25.320;2023-04-25T14:19:29;7.87;;;3.80;;
20038;SDS011;21737;42.868;25.320;2023-04-25T14:22:30;2.10;;;1.83;;
20038;SDS011;21737;42.868;25.320;2023-04-25T14:25:32;1.70;;;1.33;;
20038;SDS011;21737;42.868;25.320;2023-04-25T14:28:34;17.23;;;13.10;;
20038;SDS011;21737;42.868;25.320;2023-04-25T14:31:36;3.80;;;1.07;;
20038;SDS011;21737;42.868;25.320;2023-04-25T14:34:38;6.17;;;1.50;;
20038;SDS011;21737;42.868;25.320;2023-04-25T14:37:39;3.30;;;1.23;;
20038;SDS011;21737;42.868;25.320;2023-04-25T14:40:41;3.00;;;1.60;;
20038;SDS011;21737;42.868;25.320;2023-04-25T14:43:43;1.83;;;1.40;;
20038;SDS011;21737;42.868;25.320;2023-04-25T14:46:46;4.33;;;1.60;;
20038;SDS011;21737;42.868;25.320;2023-04-25T14:49:48;1.73;;;1.10;;
20038;SDS011;21737;42.868;25.320;2023-04-25T14:52:55;3.30;;;1.30;;
20038;SDS011;21737;42.868;25.320;2023-04-25T14:56:00;3.03;;;1.43;;
20038;SDS011;21737;42.868;25.320;2023-04-25T14:59:01;2.07;;;1.80;;
20038;SDS011;21737;42.868;25.320;2023-04-25T15:02:03;8.53;;;4.13;;
20038;SDS011;21737;42.868;25.320;2023-04-25T15:05:06;6.57;;;4.53;;
20038;SDS011;21737;42.868;25.320;2023-04-25T15:08:07;4.77;;;2.80;;
20038;SDS011;21737;42.868;25.320;2023-04-25T15:11:09;3.97;;;2.70;;
20038;SDS011;21737;42.868;25.320;2023-04-25T15:14:12;4.47;;;1.80;;
20038;SDS011;21737;42.868;25.320;2023-04-25T15:17:14;6.10;;;4.33;;
20038;SDS011;21737;42.868;25.320;2023-04-25T15:20:16;8.57;;;4.07;;
20038;SDS011;21737;42.868;25.320;2023-04-25T15:23:18;7.43;;;3.93;;
20038;SDS011;21737;42.868;25.320;2023-04-25T15:26:20;4.67;;;3.20;;
20038;SDS011;21737;42.868;25.320;2023-04-25T15:29:22;7.77;;;4.17;;
20038;SDS011;21737;42.868;25.320;2023-04-25T15:32:24;7.93;;;5.07;;
20038;SDS011;21737;42.868;25.320;2023-04-25T15:35:26;6.37;;;4.30;;
20038;SDS011;21737;42.868;25.320;2023-04-25T15:38:28;5.90;;;3.50;;
20038;SDS011;21737;42.868;25.320;2023-04-25T15:41:34;6.17;;;3.70;;
20038;SDS011;21737;42.868;25.320;2023-04-25T15:44:36;5.03;;;3.57;;
20038;SDS011;21737;42.868;25.320;2023-04-25T15:47:39;6.27;;;4.13;;
20038;SDS011;21737;42.868;25.320;2023-04-25T15:50:41;16.23;;;8.00;;
20038;SDS011;21737;42.868;25.320;2023-04-25T15:53:43;8.57;;;4.53;;
20038;SDS011;21737;42.868;25.320;2023-04-25T15:56:45;12.57;;;7.23;;
20038;SDS011;21737;42.868;25.320;2023-04-25T15:59:47;23.37;;;11.70;;
20038;SDS011;21737;42.868;25.320;2023-04-25T16:02:49;37.57;;;18.83;;
20038;SDS011;21737;42.868;25.320;2023-04-25T16:05:51;9.50;;;5.93;;
20038;SDS011;21737;42.868;25.320;2023-04-25T16:08:55;17.10;;;10.57;;
20038;SDS011;21737;42.868;25.320;2023-04-25T16:11:57;7.90;;;5.77;;
20038;SDS011;21737;42.868;25.320;2023-04-25T16:14:59;22.60;;;7.17;;
20038;SDS011;21737;42.868;25.320;2023-04-25T16:18:01;9.00;;;5.70;;
20038;SDS011;21737;42.868;25.320;2023-04-25T16:21:10;6.80;;;5.17;;
20038;SDS011;21737;42.868;25.320;2023-04-25T16:24:17;10.57;;;7.77;;
20038;SDS011;21737;42.868;25.320;2023-04-25T16:27:19;11.20;;;7.50;;
20038;SDS011;21737;42.868;25.320;2023-04-25T16:30:22;3.97;;;3.53;;
20038;SDS011;21737;42.868;25.320;2023-04-25T16:33:24;7.07;;;4.83;;
20038;SDS011;21737;42.868;25.320;2023-04-25T16:36:26;7.97;;;5.97;;
20038;SDS011;21737;42.868;25.320;2023-04-25T16:39:28;7.57;;;5.93;;
20038;SDS011;21737;42.868;25.320;2023-04-25T16:42:32;9.87;;;8.13;;
20038;SDS011;21737;42.868;25.320;2023-04-25T16:45:34;11.27;;;8.53;;
20038;SDS011;21737;42.868;25.320;2023-04-25T16:48:37;11.53;;;9.80;;
20038;SDS011;21737;42.868;25.320;2023-04-25T16:51:39;10.37;;;8.10;;
20038;SDS011;21737;42.868;25.320;2023-04-25T16:54:42;10.50;;;7.57;;
20038;SDS011;21737;42.868;25.320;2023-04-25T16:57:46;14.97;;;9.87;;
20038;SDS011;21737;42.868;25.320;2023-04-25T17:00:48;14.87;;;10.57;;
20038;SDS011;21737;42.868;25.320;2023-04-25T17:03:50;28.47;;;19.73;;
20038;SDS011;21737;42.868;25.320;2023-04-25T17:06:52;20.97;;;14.60;;
20038;SDS011;21737;42.868;25.320;2023-04-25T17:09:54;21.27;;;13.60;;
20038;SDS011;21737;42.868;25.320;2023-04-25T17:12:55;30.47;;;19.50;;
20038;SDS011;21737;42.868;25.320;2023-04-25T17:15:58;30.03;;;19.30;;
20038;SDS011;21737;42.868;25.320;2023-04-25T17:18:59;37.27;;;22.87;;
20038;SDS011;21737;42.868;25.320;2023-04-25T17:22:01;33.07;;;20.77;;
20038;SDS011;21737;42.868;25.320;2023-04-25T17:25:03;30.70;;;20.63;;
20038;SDS011;21737;42.868;25.320;2023-04-25T17:28:05;25.60;;;16.40;;
20038;SDS011;21737;42.868;25.320;2023-04-25T17:31:07;28.00;;;17.70;;
20038;SDS011;21737;42.868;25.320;2023-04-25T17:34:09;30.93;;;19.83;;
20038;SDS011;21737;42.868;25.320;2023-04-25T17:37:15;17.13;;;11.37;;
20038;SDS011;21737;42.868;25.320;2023-04-25T17:40:18;57.83;;;35.70;;
20038;SDS011;21737;42.868;25.320;2023-04-25T17:43:20;20.17;;;13.70;;
20038;SDS011;21737;42.868;25.320;2023-04-25T17:46:22;22.57;;;15.90;;
20038;SDS011;21737;42.868;25.320;2023-04-25T17:49:24;18.93;;;12.60;;
20038;SDS011;21737;42.868;25.320;2023-04-25T17:52:26;13.97;;;9.77;;
20038;SDS011;21737;42.868;25.320;2023-04-25T17:55:29;18.27;;;10.60;;
20038;SDS011;21737;42.868;25.320;2023-04-25T17:58:31;37.47;;;23.23;;
20038;SDS011;21737;42.868;25.320;2023-04-25T18:01:33;23.83;;;12.73;;
20038;SDS011;21737;42.868;25.320;2023-04-25T18:04:36;21.30;;;13.83;;
20038;SDS011;21737;42.868;25.320;2023-04-25T18:07:38;18.27;;;12.73;;
20038;SDS011;21737;42.868;25.320;2023-04-25T18:10:40;14.33;;;9.80;;
20038;SDS011;21737;42.868;25.320;2023-04-25T18:13:42;13.23;;;8.13;;
20038;SDS011;21737;42.868;25.320;2023-04-25T18:16:44;18.67;;;10.10;;
20038;SDS011;21737;42.868;25.320;2023-04-25T18:19:46;16.50;;;10.40;;